createdAt,value
2018-12-29T00:02:28.603Z,98384.77
2018-12-29T00:07:42.612Z,98396.06
2018-12-29T00:12:50.257Z,98396.90
2018-12-29T00:18:04.307Z,98395.30
2018-12-29T00:23:12.658Z,98378.39
2018-12-29T00:28:26.699Z,98382.71
2018-12-29T00:33:40.045Z,98381.03
2018-12-29T00:38:47.139Z,98388.94
2018-12-29T00:49:43.360Z,98408.30
2018-12-29T00:54:49.810Z,98416.98
2018-12-29T01:00:04.922Z,98417.63
2018-12-29T01:05:12.773Z,98418.18
2018-12-29T01:10:07.607Z,98438.26
2018-12-29T01:15:21.614Z,98442.05
2018-12-29T01:20:29.175Z,98443.88
2018-12-29T01:25:43.164Z,98461.03
2018-12-29T01:30:49.999Z,98442.29
2018-12-29T01:36:04.632Z,98437.83
2018-12-29T01:41:12.206Z,98452.73
2018-12-29T01:52:26.848Z,98436.97
2018-12-29T01:57:21.527Z,98445.36
2018-12-29T02:08:52.892Z,98448.59
2018-12-29T02:14:06.872Z,98443.23
2018-12-29T02:19:14.890Z,98459.81
2018-12-29T02:25:04.981Z,98450.77
2018-12-29T02:30:21.524Z,98457.00
2018-12-29T02:35:30.652Z,98463.47
2018-12-29T02:57:26.843Z,98419.91
2018-12-29T03:02:40.833Z,98437.19
2018-12-29T03:07:49.273Z,98426.45
2018-12-29T03:13:21.111Z,98434.55
2018-12-29T03:24:06.187Z,98397.84
2018-12-29T03:29:59.077Z,98411.68
2018-12-29T03:35:33.661Z,98406.76
2018-12-29T03:46:53.487Z,98401.37
2018-12-29T03:58:07.309Z,98395.61
2018-12-29T04:09:13.120Z,98373.66
2018-12-29T04:14:27.127Z,98352.16
2018-12-29T04:19:35.064Z,98364.63
2018-12-29T04:24:49.047Z,98363.14
2018-12-29T04:29:57.024Z,98365.20
2018-12-29T04:35:10.998Z,98356.73
2018-12-29T04:40:17.420Z,98381.95
2018-12-29T04:45:12.055Z,98373.67
2018-12-29T04:50:44.007Z,98381.28
2018-12-29T04:55:38.619Z,98379.17
2018-12-29T05:01:10.706Z,98391.23
2018-12-29T05:06:24.697Z,98403.36
2018-12-29T05:17:17.449Z,98423.27
2018-12-29T05:22:25.483Z,98437.49
2018-12-29T05:27:39.479Z,98428.36
2018-12-29T05:32:46.859Z,98461.92
2018-12-29T05:37:54.911Z,98457.65
2018-12-29T05:43:06.135Z,98474.72
2018-12-29T05:48:20.153Z,98463.95
2018-12-29T05:53:27.593Z,98470.77
2018-12-29T05:58:41.582Z,98473.16
2018-12-29T06:03:48.800Z,98493.15
2018-12-29T06:09:04.263Z,98499.52
2018-12-29T06:19:48.898Z,98484.80
2018-12-29T06:24:43.544Z,98489.45
2018-12-29T06:46:40.993Z,98499.42
2018-12-29T06:51:54.357Z,98492.36
2018-12-29T06:57:01.969Z,98494.98
2018-12-29T07:02:16.033Z,98502.91
2018-12-29T07:24:12.495Z,98533.09
2018-12-29T07:29:26.531Z,98521.64
2018-12-29T07:34:34.627Z,98526.77
2018-12-29T07:39:29.234Z,98525.47
2018-12-29T07:50:53.699Z,98528.48
2018-12-29T07:56:07.680Z,98544.72
2018-12-29T08:01:39.943Z,98544.52
2018-12-29T08:06:59.595Z,98547.42
2018-12-29T08:11:54.232Z,98552.95
2018-12-29T08:17:08.271Z,98546.27
2018-12-29T08:22:21.811Z,98563.23
2018-12-29T08:33:06.980Z,98558.09
2018-12-29T08:38:38.700Z,98563.50
2018-12-29T08:43:52.682Z,98571.46
2018-12-29T08:54:29.026Z,98596.43
2018-12-29T08:59:43.053Z,98603.90
2018-12-29T09:10:09.104Z,98613.06
2018-12-29T09:15:23.846Z,98619.22
2018-12-29T09:20:18.502Z,98625.34
2018-12-29T09:25:32.603Z,98640.95
2018-12-29T09:30:46.587Z,98631.30
2018-12-29T09:35:41.180Z,98637.55
2018-12-29T09:40:51.858Z,98643.50
2018-12-29T09:46:10.505Z,98651.77
2018-12-29T09:57:27.284Z,98657.10
2018-12-29T10:02:34.735Z,98668.93
2018-12-29T10:07:48.725Z,98668.59
2018-12-29T10:12:56.821Z,98670.75
2018-12-29T10:18:10.795Z,98660.31
2018-12-29T10:23:19.185Z,98663.33
2018-12-29T10:28:33.172Z,98661.34
2018-12-29T10:33:27.797Z,98657.13
2018-12-29T10:38:34.215Z,98657.62
2018-12-29T10:43:41.465Z,98653.70
2018-12-29T10:48:55.442Z,98649.12
2018-12-29T10:54:04.459Z,98650.10
2018-12-29T10:59:18.521Z,98645.69
2018-12-29T11:04:25.523Z,98637.14
2018-12-29T11:09:39.508Z,98634.80
2018-12-29T11:14:47.727Z,98631.05
2018-12-29T11:20:01.695Z,98630.83
2018-12-29T11:25:08.847Z,98633.84
2018-12-29T11:30:23.233Z,98631.22
2018-12-29T11:35:29.728Z,98620.30
2018-12-29T11:40:37.923Z,98626.08
2018-12-29T11:45:51.972Z,98632.79
2018-12-29T11:50:59.737Z,98630.06
2018-12-29T11:55:54.640Z,98618.55
2018-12-29T12:01:08.622Z,98613.91
2018-12-29T12:06:05.037Z,98608.97
2018-12-29T12:11:19.146Z,98598.59
2018-12-29T12:16:33.188Z,98599.08
2018-12-29T12:21:40.439Z,98592.19
2018-12-29T12:26:54.100Z,98596.09
2018-12-29T12:32:00.604Z,98593.35
2018-12-29T12:37:09.038Z,98584.99
2018-12-29T12:42:17.106Z,98582.31
2018-12-29T12:47:25.359Z,98577.92
2018-12-29T12:52:39.399Z,98568.81
2018-12-29T12:57:46.993Z,98555.91
2018-12-29T13:03:01.346Z,98550.86
2018-12-29T13:07:56.007Z,98547.02
2018-12-29T13:13:10.239Z,98552.71
2018-12-29T13:18:24.273Z,98562.53
2018-12-29T13:23:31.986Z,98556.27
2018-12-29T13:28:50.890Z,98553.14
2018-12-29T13:34:04.952Z,98551.64
2018-12-29T13:38:59.586Z,98540.55
2018-12-29T13:44:10.191Z,98526.88
2018-12-29T13:49:24.181Z,98506.11
2018-12-29T13:54:32.386Z,98514.21
2018-12-29T13:59:48.760Z,98521.77
2018-12-29T14:04:56.462Z,98520.23
2018-12-29T14:10:10.468Z,98516.79
2018-12-29T14:15:31.167Z,98545.91
2018-12-29T14:20:38.586Z,98542.90
2018-12-29T14:25:33.225Z,98558.76
2018-12-29T14:30:47.287Z,98543.66
2018-12-29T14:35:54.632Z,98521.72
2018-12-29T14:41:03.440Z,98500.48
2018-12-29T14:46:11.611Z,98510.19
2018-12-29T14:51:28.365Z,98508.19
2018-12-29T14:56:36.793Z,98492.09
2018-12-29T15:01:50.765Z,98470.60
2018-12-29T15:06:58.187Z,98475.70
2018-12-29T15:12:12.246Z,98471.14
2018-12-29T15:17:25.803Z,98472.16
2018-12-29T15:22:33.728Z,98482.41
2018-12-29T15:27:47.781Z,98480.70
2018-12-29T15:33:19.835Z,98459.41
2018-12-29T15:38:27.830Z,98495.23
2018-12-29T15:43:35.717Z,98517.28
2018-12-29T15:48:42.957Z,98530.34
2018-12-29T15:54:23.984Z,98520.03
2018-12-29T15:59:32.129Z,98504.88
2018-12-29T16:04:46.113Z,98477.34
2018-12-29T16:09:53.964Z,98441.09
2018-12-29T16:15:08.074Z,98441.77
2018-12-29T16:20:15.430Z,98453.16
2018-12-29T16:25:29.776Z,98447.73
2018-12-29T16:35:57.255Z,98467.38
2018-12-29T16:40:57.829Z,98455.92
2018-12-29T16:46:07.671Z,98446.04
2018-12-29T16:51:14.727Z,98442.34
2018-12-29T16:56:28.996Z,98428.36
2018-12-29T17:01:36.861Z,98408.31
2018-12-29T17:06:31.523Z,98417.05
2018-12-29T17:11:52.296Z,98407.92
2018-12-29T17:16:57.776Z,98399.11
2018-12-29T17:22:11.881Z,98404.64
2018-12-29T17:27:20.076Z,98403.69
2018-12-29T17:32:36.395Z,98406.88
2018-12-29T17:37:43.789Z,98396.45
2018-12-29T17:42:51.772Z,98394.48
2018-12-29T17:47:46.401Z,98403.73
2018-12-29T17:58:18.005Z,98400.80
2018-12-29T18:03:26.061Z,98409.58
2018-12-29T18:08:41.789Z,98432.73
2018-12-29T18:13:50.036Z,98439.95
2018-12-29T18:19:04.221Z,98462.22
2018-12-29T18:24:15.025Z,98469.02
2018-12-29T18:29:29.084Z,98467.63
2018-12-29T18:34:38.400Z,98474.02
2018-12-29T18:39:52.465Z,98495.58
2018-12-29T18:45:00.999Z,98492.78
2018-12-29T18:50:15.012Z,98481.91
2018-12-29T18:55:22.943Z,98466.16
2018-12-29T19:00:37.212Z,98471.05
2018-12-29T19:05:45.088Z,98457.88
2018-12-29T19:10:59.086Z,98442.77
2018-12-29T19:16:06.322Z,98440.53
2018-12-29T19:21:21.231Z,98431.22
2018-12-29T19:26:16.725Z,98433.12
2018-12-29T19:31:32.452Z,98440.01
2018-12-29T19:36:28.919Z,98461.34
2018-12-29T19:41:38.217Z,98452.53
2018-12-29T19:46:52.195Z,98464.89
2018-12-29T19:51:59.441Z,98470.77
2018-12-29T19:56:54.448Z,98478.45
2018-12-29T20:02:10.158Z,98472.09
2018-12-29T20:07:16.977Z,98476.24
2018-12-29T20:12:11.773Z,98494.75
2018-12-29T20:17:25.760Z,98484.45
2018-12-29T20:22:20.594Z,98471.82
2018-12-29T20:27:34.580Z,98470.02
2018-12-29T20:32:48.837Z,98465.73
2018-12-29T20:37:56.346Z,98464.17
2018-12-29T20:43:03.161Z,98453.34
2018-12-29T20:48:17.151Z,98448.05
2018-12-29T20:53:25.634Z,98460.67
2018-12-29T20:58:39.698Z,98445.36
2018-12-29T21:03:47.860Z,98432.39
2018-12-29T21:09:02.233Z,98443.12
2018-12-29T21:14:10.239Z,98433.22
2018-12-29T21:19:24.233Z,98435.63
2018-12-29T21:24:32.337Z,98446.36
2018-12-29T21:29:46.360Z,98461.12
2018-12-29T21:34:53.194Z,98450.88
2018-12-29T21:40:07.318Z,98464.09
2018-12-29T21:45:21.319Z,98474.31
2018-12-29T21:50:28.750Z,98467.45
2018-12-29T21:55:43.394Z,98452.88
2018-12-29T22:00:57.951Z,98437.63
2018-12-29T22:06:05.924Z,98414.20
2018-12-29T22:11:19.899Z,98418.82
2018-12-29T22:16:27.860Z,98425.73
2018-12-29T22:21:41.842Z,98433.25
2018-12-29T22:26:52.705Z,98428.42
2018-12-29T22:32:06.699Z,98416.38
2018-12-29T22:37:23.513Z,98404.94
2018-12-29T22:42:31.654Z,98390.68
2018-12-29T22:47:45.644Z,98383.50
2018-12-29T22:52:54.051Z,98383.21
2018-12-29T22:58:08.786Z,98374.64
2018-12-29T23:03:17.493Z,98379.88
2018-12-29T23:08:33.429Z,98370.47
2018-12-29T23:13:41.575Z,98384.52
2018-12-29T23:18:36.313Z,98374.99
2018-12-29T23:23:50.385Z,98374.30
2018-12-29T23:28:57.764Z,98366.73
2018-12-29T23:34:11.781Z,98363.13
2018-12-29T23:39:20.336Z,98343.22
2018-12-29T23:44:34.674Z,98329.72
2018-12-29T23:49:42.734Z,98327.97
2018-12-29T23:54:57.101Z,98338.72
